Accueil
METAR-TAF:

METAR-TAF

Aéroports :

Aéroport de Sarrebruck

Sarrebruck, Allemagne

latitude: 49-13N, longitude: 007-07E, altitude: 322 m

Observation

Le bulletin a été fait il y a 13 minutes, à 19:50 UTC
Vent 2 kt de est/nord-est
Température 21°C
Humidité 69%
Pression 1017 hPa
Visibilité 10 km ou plus
pas de nuages en-dessous de 1500 mètres et pas de cumulonimbus.

METAR: EDDR 151950Z 07002KT CAVOK 21/15 Q1017 NOSIG

Heure: 22:03 (20:03 UTC)

Prévision

Le bulletin a été fait il y a 3 heures et 3 minutes, à 17:00 UTC
Prévision valable du 15 à 18 UTC au 16 à 18 UTC
Vent 3 kt de direction variable
Visibilité 10 km ou plus
pas de nuages en-dessous de 1500 mètres et pas de cumulonimbus.
Evoluant progressivement
du 16 à 09 UTC au 16 à 11 UTC
Vent 5 kt de sud
Evoluant progressivement
du 16 à 16 UTC au 16 à 18 UTC
Vent 3 kt de direction variable

TAF: EDDR 151700Z 1518/1618 VRB03KT CAVOK BECMG 1609/1611 18005KT BECMG 1616/1618 VRB03KT

Observations et prévisions météorologiques de plus de 4000 aéroports (messages METAR et TAF).

Les stations disponibles sont représentées par des disques jaunes et rouges sur la carte.

Passer la souris dessus pour voir le nom de la station.

Cliquer dessus pour voir les observations et prévisions météorologiques.

Pour changer de carte: cliquez sur les boutons verts avec une croix noire pour zoomer, sur le bouton vert avec un tiret pour effectuer un zoom arrière, ou sur les flèches vertes pour les cartes adjacentes.


METAR-TAF: